createdAt,value
2022-07-31T00:01:30.310Z,97982.29
2022-07-31T00:04:02.169Z,97979.99
2022-07-31T00:06:34.208Z,97981.08
2022-07-31T00:09:06.745Z,97982.48
2022-07-31T00:11:59.287Z,97985.34
2022-07-31T00:14:31.388Z,97982.86
2022-07-31T00:17:05.252Z,97983.24
2022-07-31T00:19:38.496Z,97985.02
2022-07-31T00:22:11.038Z,97982.55
2022-07-31T00:24:43.417Z,97982.38
2022-07-31T00:27:16.142Z,97982.24
2022-07-31T00:29:48.268Z,97982.09
2022-07-31T00:32:20.942Z,97981.57
2022-07-31T00:34:55.882Z,97976.63
2022-07-31T00:37:28.504Z,97971.85
2022-07-31T00:40:00.485Z,97978.04
2022-07-31T00:42:35.065Z,97973.44
2022-07-31T00:45:08.762Z,97977.31
2022-07-31T00:47:41.155Z,97975.02
2022-07-31T00:50:14.949Z,97972.17
2022-07-31T00:52:47.616Z,97970.72
2022-07-31T00:55:20.116Z,97963.84
2022-07-31T00:57:52.117Z,97967.73
2022-07-31T01:00:24.641Z,97967.58
2022-07-31T01:02:57.512Z,97971.95
2022-07-31T01:05:29.775Z,97971.05
2022-07-31T01:08:02.663Z,97974.77
2022-07-31T01:10:43.373Z,97967.17
2022-07-31T01:13:19.818Z,97968.39
2022-07-31T01:15:52.692Z,97972.41
2022-07-31T01:18:26.344Z,97969.58
2022-07-31T01:20:59.712Z,97969.40
2022-07-31T01:23:55.212Z,97967.23
2022-07-31T01:26:37.659Z,97967.05
2022-07-31T01:29:20.680Z,97966.17
2022-07-31T01:31:55.852Z,97965.65
2022-07-31T01:34:36.057Z,97968.44
2022-07-31T01:37:12.503Z,97965.63
2022-07-31T01:39:48.057Z,97966.12
2022-07-31T01:42:22.040Z,97967.88
2022-07-31T01:44:58.286Z,97969.27
2022-07-31T01:47:31.280Z,97975.98
2022-07-31T01:50:04.948Z,97969.70
2022-07-31T01:52:38.314Z,97972.41
2022-07-31T01:55:13.606Z,97974.27
2022-07-31T01:57:46.112Z,97972.63
2022-07-31T02:00:34.227Z,97972.37
2022-07-31T02:03:09.960Z,97973.32
2022-07-31T02:05:43.778Z,97970.98
2022-07-31T02:08:20.142Z,97971.08
2022-07-31T02:10:53.852Z,97967.84
2022-07-31T02:13:26.698Z,97965.45
2022-07-31T02:15:59.611Z,97964.61
2022-07-31T02:18:32.166Z,97967.83
2022-07-31T02:21:05.663Z,97962.61
2022-07-31T02:23:38.596Z,97963.89
2022-07-31T02:26:11.931Z,97959.71
2022-07-31T02:28:45.938Z,97965.23
2022-07-31T02:31:19.994Z,97962.33
2022-07-31T02:33:52.616Z,97966.13
2022-07-31T02:36:25.062Z,97961.62
2022-07-31T02:38:59.128Z,97962.33
2022-07-31T02:41:31.366Z,97961.30
2022-07-31T02:44:06.548Z,97962.55
2022-07-31T02:46:39.391Z,97963.64
2022-07-31T02:49:11.534Z,97961.20
2022-07-31T02:51:44.151Z,97962.10
2022-07-31T02:54:16.409Z,97967.77
2022-07-31T02:56:50.383Z,97965.71
2022-07-31T02:59:23.237Z,97961.89
2022-07-31T03:01:55.861Z,97961.39
2022-07-31T03:04:27.758Z,97966.86
2022-07-31T03:07:00.664Z,97966.68
2022-07-31T03:09:32.898Z,97967.03
2022-07-31T03:12:05.596Z,97973.88
2022-07-31T03:14:39.004Z,97972.34
2022-07-31T03:17:11.287Z,97969.54
2022-07-31T03:19:44.229Z,97968.14
2022-07-31T03:22:16.925Z,97967.61
2022-07-31T03:24:52.590Z,97966.88
2022-07-31T03:27:24.834Z,97970.95
2022-07-31T03:29:56.828Z,97967.10
2022-07-31T03:32:28.969Z,97969.75
2022-07-31T03:35:02.670Z,97967.13
2022-07-31T03:37:35.075Z,97972.09
2022-07-31T03:40:11.547Z,97973.70
2022-07-31T03:42:44.573Z,97972.15
2022-07-31T03:45:17.187Z,97972.33
2022-07-31T03:47:49.371Z,97977.80
2022-07-31T03:50:22.726Z,97984.01
2022-07-31T03:52:55.210Z,97983.20
2022-07-31T03:55:27.778Z,97983.07
2022-07-31T03:58:00.447Z,97985.04
2022-07-31T04:00:33.570Z,97982.58
2022-07-31T04:03:10.971Z,97982.27
2022-07-31T04:05:44.072Z,97982.10
2022-07-31T04:08:17.467Z,97981.60
2022-07-31T04:10:50.128Z,97980.41
2022-07-31T04:13:22.214Z,97978.48
2022-07-31T04:15:54.478Z,97982.20
2022-07-31T04:18:26.447Z,97985.56
2022-07-31T04:20:58.283Z,97983.48
2022-07-31T04:23:32.282Z,97983.64
2022-07-31T04:26:05.163Z,97983.83
2022-07-31T04:28:37.899Z,97984.73
2022-07-31T04:31:10.099Z,97987.74
2022-07-31T04:33:47.362Z,97986.67
2022-07-31T04:36:29.554Z,97987.72
2022-07-31T04:39:03.909Z,97990.70
2022-07-31T04:41:35.878Z,97992.30
2022-07-31T04:44:08.171Z,97994.04
2022-07-31T04:46:40.158Z,97999.33
2022-07-31T04:49:13.349Z,98004.77
2022-07-31T04:51:45.695Z,98003.92
2022-07-31T04:54:17.662Z,98011.30
2022-07-31T04:56:49.803Z,98010.97
2022-07-31T04:59:23.449Z,98013.06
2022-07-31T05:02:18.548Z,98017.11
2022-07-31T05:04:56.506Z,98019.21
2022-07-31T05:07:29.603Z,98025.72
2022-07-31T05:10:01.487Z,98025.15
2022-07-31T05:12:33.540Z,98025.18
2022-07-31T05:15:08.035Z,98025.16
2022-07-31T05:17:40.552Z,98026.36
2022-07-31T05:20:14.419Z,98029.17
2022-07-31T05:22:46.820Z,98032.67
2022-07-31T05:25:19.340Z,98040.81
2022-07-31T05:27:53.513Z,98041.55
2022-07-31T05:30:30.479Z,98047.22
2022-07-31T05:33:05.779Z,98050.63
2022-07-31T05:35:38.322Z,98052.98
2022-07-31T05:38:15.480Z,98056.06
2022-07-31T05:40:48.296Z,98058.96
2022-07-31T05:43:20.193Z,98064.65
2022-07-31T05:45:52.425Z,98061.86
2022-07-31T05:48:24.510Z,98068.78
2022-07-31T05:50:56.663Z,98076.02
2022-07-31T05:53:29.252Z,98070.77
2022-07-31T05:56:02.708Z,98076.09
2022-07-31T05:58:35.679Z,98079.25
2022-07-31T06:01:08.224Z,98081.55
2022-07-31T06:03:51.655Z,98080.88
2022-07-31T06:06:24.662Z,98087.56
2022-07-31T06:09:01.861Z,98085.63
2022-07-31T06:11:36.096Z,98088.27
2022-07-31T06:14:08.348Z,98090.90
2022-07-31T06:16:42.023Z,98095.65
2022-07-31T06:19:14.236Z,98093.16
2022-07-31T06:21:47.763Z,98092.45
2022-07-31T06:24:23.174Z,98093.47
2022-07-31T06:26:59.650Z,98096.28
2022-07-31T06:29:40.916Z,98100.16
2022-07-31T06:32:14.478Z,98098.77
2022-07-31T06:34:46.629Z,98104.20
2022-07-31T06:37:20.555Z,98104.73
2022-07-31T06:39:55.468Z,98102.94
2022-07-31T06:42:29.294Z,98105.09
2022-07-31T06:45:01.974Z,98101.60
2022-07-31T06:47:34.169Z,98101.77
2022-07-31T06:50:08.168Z,98099.45
2022-07-31T06:52:40.200Z,98100.45
2022-07-31T06:55:13.165Z,98101.46
2022-07-31T06:57:45.489Z,98104.10
2022-07-31T07:00:21.083Z,98100.76
2022-07-31T07:02:53.675Z,98109.05
2022-07-31T07:05:25.824Z,98108.14
2022-07-31T07:07:58.226Z,98106.21
2022-07-31T07:10:30.291Z,98110.26
2022-07-31T07:13:02.555Z,98109.91
2022-07-31T07:15:35.340Z,98114.15
2022-07-31T07:18:08.124Z,98114.66
2022-07-31T07:20:40.646Z,98115.35
2022-07-31T07:23:12.843Z,98114.99
2022-07-31T07:25:46.681Z,98121.14
2022-07-31T07:28:31.163Z,98117.30
2022-07-31T07:31:03.932Z,98114.16
2022-07-31T07:33:41.604Z,98114.52
2022-07-31T07:36:22.953Z,98118.19
2022-07-31T07:38:58.108Z,98116.96
2022-07-31T07:41:30.686Z,98115.93
2022-07-31T07:44:08.031Z,98117.19
2022-07-31T07:46:40.021Z,98117.02
2022-07-31T07:49:12.531Z,98115.05
2022-07-31T07:51:59.703Z,98118.88
2022-07-31T07:54:32.851Z,98122.16
2022-07-31T07:57:05.186Z,98121.80
2022-07-31T07:59:37.092Z,98121.45
2022-07-31T08:02:10.863Z,98125.83
2022-07-31T08:04:47.423Z,98125.48
2022-07-31T08:07:42.609Z,98129.59
2022-07-31T08:10:19.372Z,98129.75
2022-07-31T08:12:51.526Z,98134.37
2022-07-31T08:15:26.061Z,98132.10
2022-07-31T08:17:58.302Z,98135.60
2022-07-31T08:20:30.547Z,98131.73
2022-07-31T08:23:02.648Z,98137.70
2022-07-31T08:25:35.857Z,98141.03
2022-07-31T08:28:12.417Z,98137.86
2022-07-31T08:30:52.174Z,98134.35
2022-07-31T08:33:24.568Z,98138.02
2022-07-31T08:35:57.644Z,98141.30
2022-07-31T08:38:30.185Z,98141.79
2022-07-31T08:41:03.777Z,98139.86
2022-07-31T08:44:02.806Z,98145.35
2022-07-31T08:46:29.449Z,98153.48
2022-07-31T08:49:05.028Z,98150.50
2022-07-31T08:51:50.416Z,98148.91
2022-07-31T08:54:26.513Z,98152.89
2022-07-31T08:56:59.021Z,98150.90
2022-07-31T08:59:31.231Z,98154.58
2022-07-31T09:02:05.724Z,98152.80
2022-07-31T09:04:38.148Z,98152.98
2022-07-31T09:07:19.127Z,98153.70
2022-07-31T09:09:52.592Z,98155.27
2022-07-31T09:12:34.274Z,98155.27
2022-07-31T09:15:20.468Z,98152.64
2022-07-31T09:17:54.514Z,98153.13
2022-07-31T09:20:27.955Z,98154.70
2022-07-31T09:23:18.906Z,98157.73
2022-07-31T09:25:57.462Z,98161.19
2022-07-31T09:28:46.718Z,98164.33
2022-07-31T09:31:22.176Z,98163.27
2022-07-31T09:33:54.681Z,98165.70
2022-07-31T09:36:28.041Z,98163.08
2022-07-31T09:39:04.116Z,98166.02
2022-07-31T09:41:58.207Z,98168.30
2022-07-31T09:44:38.466Z,98168.70
2022-07-31T09:47:23.084Z,98169.77
2022-07-31T09:49:59.789Z,98169.25
2022-07-31T09:52:33.082Z,98172.08
2022-07-31T09:55:16.433Z,98177.02
2022-07-31T09:57:56.767Z,98173.81
2022-07-31T10:00:29.527Z,98178.36
2022-07-31T10:03:04.161Z,98176.08
2022-07-31T10:05:39.379Z,98178.60
2022-07-31T10:08:14.192Z,98180.04
2022-07-31T10:10:50.440Z,98181.69
2022-07-31T10:13:23.119Z,98184.02
2022-07-31T10:15:57.225Z,98182.09
2022-07-31T10:18:37.951Z,98180.34
2022-07-31T10:21:14.092Z,98184.77
2022-07-31T10:23:47.444Z,98188.41
2022-07-31T10:26:19.602Z,98188.05
2022-07-31T10:28:52.508Z,98189.73
2022-07-31T10:31:24.840Z,98188.30
2022-07-31T10:33:57.226Z,98191.12
2022-07-31T10:36:34.529Z,98186.16
2022-07-31T10:39:15.818Z,98191.19
2022-07-31T10:41:56.060Z,98193.23
2022-07-31T10:44:36.766Z,98195.21
2022-07-31T10:47:18.124Z,98198.09
2022-07-31T10:49:52.456Z,98200.90
2022-07-31T10:52:33.468Z,98197.04
2022-07-31T10:55:15.073Z,98196.76
2022-07-31T10:57:55.992Z,98202.23
2022-07-31T11:00:30.281Z,98199.80
2022-07-31T11:03:15.468Z,98206.16
2022-07-31T11:06:03.320Z,98207.73
2022-07-31T11:08:45.894Z,98208.59
2022-07-31T11:11:18.182Z,98209.06
2022-07-31T11:13:52.508Z,98209.17
2022-07-31T11:16:25.190Z,98207.59
2022-07-31T11:19:02.796Z,98208.45
2022-07-31T11:21:39.298Z,98211.08
2022-07-31T11:24:18.563Z,98210.54
2022-07-31T11:26:55.639Z,98208.27
2022-07-31T11:29:59.751Z,98208.59
2022-07-31T11:32:26.105Z,98206.07
2022-07-31T11:35:00.140Z,98203.94
2022-07-31T11:37:46.085Z,98205.86
2022-07-31T11:40:27.771Z,98203.38
2022-07-31T11:45:55.229Z,98209.53
2022-07-31T11:48:36.001Z,98204.77
2022-07-31T11:51:11.572Z,98209.70
2022-07-31T11:53:56.708Z,98207.58
2022-07-31T11:56:32.225Z,98208.45
2022-07-31T11:59:04.064Z,98208.60
2022-07-31T12:01:40.820Z,98211.59
2022-07-31T12:04:13.559Z,98209.48
2022-07-31T12:06:46.216Z,98212.84
2022-07-31T12:10:02.589Z,98215.48
2022-07-31T12:12:12.297Z,98219.53
2022-07-31T12:14:44.853Z,98220.39
2022-07-31T12:17:23.716Z,98225.13
2022-07-31T12:19:58.055Z,98236.02
2022-07-31T12:22:30.356Z,98235.13
2022-07-31T12:25:08.628Z,98237.94
2022-07-31T12:27:42.341Z,98242.14
2022-07-31T12:30:19.375Z,98242.82
2022-07-31T12:32:51.807Z,98248.23
2022-07-31T12:35:24.509Z,98251.73
2022-07-31T12:38:36.863Z,98248.02
2022-07-31T12:41:53.892Z,98252.92
2022-07-31T12:44:27.280Z,98250.52
2022-07-31T12:46:59.933Z,98247.59
2022-07-31T12:49:32.173Z,98243.95
2022-07-31T12:52:06.091Z,98246.83
2022-07-31T12:54:39.589Z,98248.00
2022-07-31T12:57:13.945Z,98248.12
2022-07-31T12:59:47.500Z,98242.95
2022-07-31T13:02:23.582Z,98250.84
2022-07-31T13:04:57.817Z,98251.70
2022-07-31T13:07:31.346Z,98250.95
2022-07-31T13:10:20.032Z,98256.77
2022-07-31T13:12:55.241Z,98252.69
2022-07-31T13:15:31.973Z,98254.80
2022-07-31T13:18:05.837Z,98256.56
2022-07-31T13:20:39.717Z,98252.48
2022-07-31T13:23:12.442Z,98251.73
2022-07-31T13:25:46.309Z,98251.70
2022-07-31T13:28:19.492Z,98255.58
2022-07-31T13:30:55.032Z,98252.04
2022-07-31T13:33:27.706Z,98252.73
2022-07-31T13:36:01.861Z,98245.64
2022-07-31T13:38:34.339Z,98246.48
2022-07-31T13:41:25.682Z,98248.70
2022-07-31T13:44:00.032Z,98249.52
2022-07-31T13:46:34.933Z,98248.77
2022-07-31T13:49:10.689Z,98250.14
2022-07-31T13:51:44.538Z,98250.48
2022-07-31T13:54:19.021Z,98246.73
2022-07-31T13:56:51.521Z,98246.70
2022-07-31T13:59:24.969Z,98248.63
2022-07-31T14:02:04.782Z,98249.64
2022-07-31T14:04:38.940Z,98247.30
2022-07-31T14:07:14.914Z,98249.55
2022-07-31T14:09:55.246Z,98249.01
2022-07-31T14:12:30.764Z,98252.16
2022-07-31T14:15:06.807Z,98254.98
2022-07-31T14:17:39.174Z,98256.56
2022-07-31T14:20:13.971Z,98259.38
2022-07-31T14:22:46.327Z,98259.52
2022-07-31T14:25:18.861Z,98260.75
2022-07-31T14:27:53.399Z,98261.29
2022-07-31T14:30:26.568Z,98259.54
2022-07-31T14:32:59.148Z,98266.63
2022-07-31T14:35:33.687Z,98266.50
2022-07-31T14:38:09.322Z,98268.11
2022-07-31T14:40:42.070Z,98272.86
2022-07-31T14:43:14.801Z,98269.31
2022-07-31T14:45:51.927Z,98270.70
2022-07-31T14:48:27.347Z,98276.67
2022-07-31T14:51:00.040Z,98275.58
2022-07-31T14:53:33.239Z,98276.40
2022-07-31T14:56:06.358Z,98285.54
2022-07-31T14:58:58.075Z,98287.45
2022-07-31T15:01:32.160Z,98296.27
2022-07-31T15:04:06.892Z,98294.98
2022-07-31T15:06:53.246Z,98294.24
2022-07-31T15:09:31.595Z,98292.80
2022-07-31T15:12:05.142Z,98291.70
2022-07-31T15:14:38.233Z,98292.23
2022-07-31T15:17:11.187Z,98294.34
2022-07-31T15:19:43.749Z,98295.02
2022-07-31T15:22:19.389Z,98295.70
2022-07-31T15:24:51.906Z,98297.47
2022-07-31T15:27:25.237Z,98298.17
2022-07-31T15:30:05.765Z,98308.75
2022-07-31T15:32:41.555Z,98302.73
2022-07-31T15:35:18.150Z,98307.70
2022-07-31T15:37:55.147Z,98305.02
2022-07-31T15:40:33.370Z,98302.89
2022-07-31T15:43:06.673Z,98303.78
2022-07-31T15:45:41.331Z,98304.85
2022-07-31T15:48:16.034Z,98308.55
2022-07-31T15:50:50.089Z,98308.37
2022-07-31T15:53:32.790Z,98305.54
2022-07-31T15:56:13.343Z,98304.14
2022-07-31T15:58:53.776Z,98303.08
2022-07-31T16:01:27.316Z,98304.63
2022-07-31T16:04:00.207Z,98303.92
2022-07-31T16:06:33.787Z,98303.75
2022-07-31T16:09:06.534Z,98304.27
2022-07-31T16:12:04.259Z,98305.47
2022-07-31T16:14:35.591Z,98307.20
2022-07-31T16:17:09.007Z,98303.29
2022-07-31T16:19:41.954Z,98301.34
2022-07-31T16:22:15.908Z,98302.55
2022-07-31T16:24:52.272Z,98301.10
2022-07-31T16:27:25.633Z,98302.45
2022-07-31T16:30:02.331Z,98300.31
2022-07-31T16:32:36.765Z,98299.55
2022-07-31T16:35:11.342Z,98301.06
2022-07-31T16:37:50.294Z,98301.70
2022-07-31T16:40:29.765Z,98298.80
2022-07-31T16:43:48.331Z,98293.64
2022-07-31T16:45:59.411Z,98287.20
2022-07-31T16:48:34.621Z,98282.19
2022-07-31T16:51:08.183Z,98281.59
2022-07-31T16:54:10.534Z,98287.68
2022-07-31T16:56:38.204Z,98286.89
2022-07-31T16:59:12.194Z,98289.67
2022-07-31T17:01:54.045Z,98288.15
2022-07-31T17:04:35.611Z,98282.27
2022-07-31T17:07:14.584Z,98288.16
2022-07-31T17:09:54.424Z,98289.52
2022-07-31T17:12:27.751Z,98294.53
2022-07-31T17:15:07.410Z,98297.12
2022-07-31T17:17:43.231Z,98299.20
2022-07-31T17:20:19.179Z,98298.12
2022-07-31T17:22:54.541Z,98297.41
2022-07-31T17:25:28.533Z,98301.99
2022-07-31T17:28:01.394Z,98301.63
2022-07-31T17:30:38.808Z,98299.31
2022-07-31T17:33:11.855Z,98302.53
2022-07-31T17:35:47.173Z,98303.80
2022-07-31T17:38:19.868Z,98307.50
2022-07-31T17:40:53.319Z,98310.20
2022-07-31T17:43:27.745Z,98313.58
2022-07-31T17:46:08.454Z,98313.42
2022-07-31T17:48:51.053Z,98317.17
2022-07-31T17:51:24.167Z,98316.70
2022-07-31T17:53:59.083Z,98311.61
2022-07-31T17:56:32.505Z,98311.28
2022-07-31T17:59:06.367Z,98310.96
2022-07-31T18:01:39.404Z,98310.46
2022-07-31T18:04:12.634Z,98310.66
2022-07-31T18:06:54.200Z,98312.80
2022-07-31T18:09:28.044Z,98315.30
2022-07-31T18:12:03.597Z,98315.65
2022-07-31T18:14:40.601Z,98315.45
2022-07-31T18:17:15.199Z,98316.86
2022-07-31T18:19:48.012Z,98320.41
2022-07-31T18:22:20.436Z,98325.31
2022-07-31T18:24:58.254Z,98324.75
2022-07-31T18:27:30.697Z,98329.89
2022-07-31T18:30:03.571Z,98333.36
2022-07-31T18:32:35.667Z,98334.59
2022-07-31T18:35:10.449Z,98343.48
2022-07-31T18:37:43.362Z,98337.13
2022-07-31T18:40:16.442Z,98345.08
2022-07-31T18:42:50.995Z,98347.20
2022-07-31T18:45:24.398Z,98345.47
2022-07-31T18:47:57.370Z,98349.92
2022-07-31T18:51:01.466Z,98352.08
2022-07-31T18:53:24.502Z,98351.42
2022-07-31T18:55:57.146Z,98351.45
2022-07-31T18:58:29.847Z,98354.86
2022-07-31T19:01:04.297Z,98355.23
2022-07-31T19:03:36.960Z,98358.27
2022-07-31T19:06:09.564Z,98362.33
2022-07-31T19:08:45.136Z,98361.46
2022-07-31T19:11:18.730Z,98364.31
2022-07-31T19:13:52.450Z,98367.88
2022-07-31T19:16:24.612Z,98367.22
2022-07-31T19:18:56.805Z,98366.73
2022-07-31T19:21:41.636Z,98366.58
2022-07-31T19:24:17.278Z,98365.54
2022-07-31T19:26:53.713Z,98365.60
2022-07-31T19:29:27.845Z,98369.17
2022-07-31T19:32:01.775Z,98371.36
2022-07-31T19:34:34.730Z,98372.80
2022-07-31T19:37:09.815Z,98376.39
2022-07-31T19:39:42.688Z,98377.48
2022-07-31T19:42:17.860Z,98381.59
2022-07-31T19:44:50.345Z,98383.08
2022-07-31T19:47:23.225Z,98384.52
2022-07-31T19:49:56.554Z,98387.58
2022-07-31T19:52:30.382Z,98386.42
2022-07-31T19:55:04.586Z,98383.65
2022-07-31T19:57:42.959Z,98382.30
2022-07-31T20:00:17.362Z,98379.88
2022-07-31T20:02:51.778Z,98383.80
2022-07-31T20:05:25.612Z,98385.09
2022-07-31T20:07:59.660Z,98388.17
2022-07-31T20:10:32.900Z,98387.31
2022-07-31T20:13:06.031Z,98391.59
2022-07-31T20:15:50.726Z,98390.39
2022-07-31T20:18:29.006Z,98391.86
2022-07-31T20:21:07.057Z,98384.19
2022-07-31T20:23:41.741Z,98392.63
2022-07-31T20:26:16.076Z,98386.98
2022-07-31T20:28:49.146Z,98386.27
2022-07-31T20:31:23.534Z,98390.52
2022-07-31T20:33:58.347Z,98390.02
2022-07-31T20:36:34.637Z,98389.68
2022-07-31T20:39:08.494Z,98391.11
2022-07-31T20:41:44.497Z,98389.54
2022-07-31T20:44:18.327Z,98390.97
2022-07-31T20:46:50.786Z,98392.58
2022-07-31T20:49:34.918Z,98392.21
2022-07-31T20:52:09.109Z,98390.83
2022-07-31T20:54:42.197Z,98390.85
2022-07-31T20:57:16.558Z,98389.63
2022-07-31T20:59:51.790Z,98388.25
2022-07-31T21:02:24.320Z,98384.91
2022-07-31T21:04:57.088Z,98382.82
2022-07-31T21:07:30.397Z,98384.75
2022-07-31T21:10:06.914Z,98384.75
2022-07-31T21:12:39.858Z,98382.12
2022-07-31T21:15:40.745Z,98383.70
2022-07-31T21:18:10.197Z,98389.19
2022-07-31T21:20:51.325Z,98387.26
2022-07-31T21:23:27.049Z,98386.23
2022-07-31T21:26:00.629Z,98385.17
2022-07-31T21:28:35.016Z,98386.80
2022-07-31T21:31:10.270Z,98388.40
2022-07-31T21:33:45.420Z,98386.84
2022-07-31T21:36:18.617Z,98384.36
2022-07-31T21:38:55.669Z,98385.25
2022-07-31T21:41:30.595Z,98385.61
2022-07-31T21:44:06.222Z,98389.15
2022-07-31T21:46:46.073Z,98393.39
2022-07-31T21:49:25.799Z,98390.40
2022-07-31T21:51:59.442Z,98393.41
2022-07-31T21:54:32.866Z,98392.53
2022-07-31T21:57:05.762Z,98391.84
2022-07-31T21:59:37.627Z,98394.85
2022-07-31T22:02:12.196Z,98392.05
2022-07-31T22:04:59.908Z,98396.49
2022-07-31T22:07:34.051Z,98393.69
2022-07-31T22:10:08.936Z,98396.71
2022-07-31T22:12:42.150Z,98398.86
2022-07-31T22:15:15.850Z,98399.42
2022-07-31T22:17:49.394Z,98398.73
2022-07-31T22:20:24.051Z,98397.86
2022-07-31T22:22:57.964Z,98398.23
2022-07-31T22:25:31.770Z,98398.96
2022-07-31T22:28:05.787Z,98399.88
2022-07-31T22:30:39.665Z,98398.35
2022-07-31T22:33:13.166Z,98399.46
2022-07-31T22:35:59.516Z,98399.70
2022-07-31T22:38:35.836Z,98403.29
2022-07-31T22:41:09.218Z,98406.16
2022-07-31T22:44:10.624Z,98405.35
2022-07-31T22:46:37.434Z,98407.89
2022-07-31T22:49:12.512Z,98406.70
2022-07-31T22:51:46.775Z,98404.48
2022-07-31T22:54:19.651Z,98407.17
2022-07-31T22:56:58.182Z,98404.77
2022-07-31T22:59:30.113Z,98405.52
2022-07-31T23:02:04.406Z,98404.49
2022-07-31T23:04:38.257Z,98402.73
2022-07-31T23:07:10.404Z,98402.25
2022-07-31T23:09:43.126Z,98400.16
2022-07-31T23:12:15.585Z,98400.89
2022-07-31T23:14:49.102Z,98403.93
2022-07-31T23:17:23.735Z,98402.73
2022-07-31T23:19:58.651Z,98403.11
2022-07-31T23:22:33.789Z,98407.02
2022-07-31T23:25:13.027Z,98404.24
2022-07-31T23:27:46.149Z,98404.62
2022-07-31T23:30:18.221Z,98407.48
2022-07-31T23:32:50.724Z,98406.44
2022-07-31T23:35:24.211Z,98412.46
2022-07-31T23:37:56.742Z,98418.30
2022-07-31T23:40:29.449Z,98415.00
2022-07-31T23:43:04.648Z,98423.46
2022-07-31T23:45:37.909Z,98423.66
2022-07-31T23:48:14.873Z,98420.86
2022-07-31T23:50:47.520Z,98423.17
2022-07-31T23:53:20.486Z,98417.23
2022-07-31T23:55:54.545Z,98417.95
2022-07-31T23:58:26.915Z,98414.44
